Mannheim, Germany

11:44 AM CEST on October 20, 2014 (GMT +0200)
IBADENWR11 | Change Station
CLOSE
Current Station
Personal Weather Station
Location: Mannheim, BADEN-WuRTTEMBERG
Elevation: 387 ft
Nearby Weather Stations

Elev 387 ft 49.49 °N, 8.48 °E | Updated 45 seconds ago

Mostly Cloudy
Mostly Cloudy
65.3 °F
Feels Like 65.3 °F
N
2.0
Wind Variable Wind from WSW
Gusts 8.0 mph

Today
High -- | Low -- °F
--% Chance of Precip.
Yesterday
High -- | Low -- °F
Precip. -- in
7:54 AM 6:26 PM
Waning Crescent, 12% visible
Pressure 30.09 in
Visibility 6.2 miles
Clouds Few 1000 ft
Mostly Cloudy 5500 ft
Dew Point 61 °F
Humidity 87%
Rainfall 0.00 in
Snow Depth Not available.
UV 1.8 out of 12
Pollen Not available.
Air Quality Not available.
Flu Activity Not available.
METAR EDFM 200920Z 20005KT 9999 VCSH FEW010 BKN055 18/15 Q1019

More Conditions Fewer Conditions

Pressure 30.09 in
Visibility 6.2 miles
Clouds Few 1000 ft
Mostly Cloudy 5500 ft
Dew Point 61 °F
Humidity 87%
Rainfall 0.00 in
Snow Depth Not available.
UV 1.8 out of 12
Pollen Not available.
Air Quality Not available.
Flu Activity Not available.
METAR EDFM 200920Z 20005KT 9999 VCSH FEW010 BKN055 18/15 Q1019

More Conditions Fewer Conditions

10-Day Weather Forecast

Almanac

Astronomy

Oct. 20, 2014 Rise Set
Actual Time 7:54 AM CEST 6:26 PM CEST
Civil Twilight 7:22 AM CEST 6:58 PM CEST
Nautical Twilight 6:44 AM CEST 7:35 PM CEST
Astronomical Twilight 6:07 AM CEST 8:12 PM CEST
Moon 4:09 AM CEST 4:55 PM CEST
Length of Visible Light 11h 36m
Length of Day
10h 31m
Tomorrow will be 3m 30s shorter.
Waning Crescent, 12% of the Moon is Illuminated
Today
Waning Crescent
Oct 23
New
Oct 30
First Quarter
Nov 6
Full
Nov 14
Last Quarter

Yesterday's Extremes

Country Highs Country Lows

Community

WunderPhotos

Upload Photos

1,763,325 photos uploaded!

Nearby

Snow Depth

Not available.

Earthquake Activity

City Distance Mag. Time & Date
No recent earthquake activity has been reported nearby.
Minimum magnitude displayed is 2.5.

Coastal Water Temperatures

Place Temperature
No Stations Reporting

Nearby Weather Stations